ADDS METAR Data INFO
IDs: Format: Raw Decoded Include TAF

Data at: 1913 UTC 23 Jun 2018

METAR for:KMNN (Marion Muni, OH, US)
Text:KMNN 231853Z AUTO 26013G18KT 10SM OVC070 23/18 A2976 RMK AO2 SLP073 T02330183 $
Temperature: 23.3°C ( 74°F)
Dewpoint: 18.3°C ( 65°F) [RH = 74%]
Pressure (altimeter):29.76 inches Hg (1007.9 mb) [Sea level pressure: 1007.3 mb]
Winds:from the W (260 degrees) at 15 MPH (13 knots; 6.7 m/s) gusting to 21 MPH (18 knots; 9.3 m/s)
Visibility:10 or more sm (16+ km)
Ceiling:7000 feet AGL
Clouds: overcast cloud deck at 7000 feet AGL
QC Flag:automated observation with no human augmentation; SOME DATA ABOVE MAY BE INACCURATE!!!"$" is an indication the sensor requires maintenance.